createdAt,value
2023-04-03T00:04:54.871Z,34.59
2023-04-03T00:10:00.066Z,34.42
2023-04-03T00:15:05.618Z,34.52
2023-04-03T00:20:11.706Z,33.82
2023-04-03T00:25:16.990Z,33.96
2023-04-03T00:30:24.202Z,34.19
2023-04-03T00:35:30.655Z,34.22
2023-04-03T00:40:41.205Z,34.55
2023-04-03T00:45:51.542Z,35.11
2023-04-03T00:50:58.475Z,35.21
2023-04-03T00:56:04.258Z,34.99
2023-04-03T01:01:15.978Z,34.74
2023-04-03T01:06:28.996Z,34.69
2023-04-03T01:11:42.540Z,34.99
2023-04-03T01:16:56.090Z,35.03
2023-04-03T01:22:38.650Z,34.68
2023-04-03T01:27:43.920Z,34.54
2023-04-03T01:32:49.482Z,34.50
2023-04-03T01:37:56.582Z,34.44
2023-04-03T01:43:03.242Z,34.25
2023-04-03T01:48:08.701Z,34.75
2023-04-03T01:53:15.239Z,34.43
2023-04-03T01:58:20.674Z,34.08
2023-04-03T02:03:27.936Z,33.97
2023-04-03T02:08:34.345Z,33.76
2023-04-03T02:13:39.765Z,33.87
2023-04-03T02:18:45.962Z,33.80
2023-04-03T02:23:51.684Z,33.66
2023-04-03T02:28:57.150Z,33.93
2023-04-03T02:34:02.661Z,34.20
2023-04-03T02:39:08.241Z,33.80
2023-04-03T02:44:16.823Z,34.34
2023-04-03T02:49:22.780Z,34.13
2023-04-03T02:54:31.871Z,34.35
2023-04-03T02:59:44.255Z,33.85
2023-04-03T03:04:50.394Z,33.55
2023-04-03T03:09:55.644Z,33.71
2023-04-03T03:15:01.882Z,33.51
2023-04-03T03:20:08.542Z,33.46
2023-04-03T03:25:14.175Z,33.21
2023-04-03T03:30:18.764Z,33.45
2023-04-03T03:35:25.603Z,32.92
2023-04-03T03:40:30.514Z,33.54
2023-04-03T03:45:36.424Z,33.41
2023-04-03T03:50:42.061Z,33.00
2023-04-03T03:55:48.895Z,32.54
2023-04-03T04:00:56.006Z,31.67
2023-04-03T04:06:03.195Z,31.43
2023-04-03T04:11:08.966Z,31.33
2023-04-03T04:16:15.943Z,30.39
2023-04-03T04:21:21.970Z,30.16
2023-04-03T04:26:30.016Z,30.62
2023-04-03T04:31:35.538Z,30.30
2023-04-03T04:36:44.368Z,29.91
2023-04-03T04:41:50.000Z,30.31
2023-04-03T04:46:55.360Z,30.17
2023-04-03T04:52:00.606Z,28.35
2023-04-03T04:57:09.242Z,30.67
2023-04-03T05:02:14.872Z,29.65
2023-04-03T05:07:22.360Z,28.92
2023-04-03T05:12:27.824Z,30.20
2023-04-03T05:17:39.229Z,30.08
2023-04-03T05:22:48.532Z,29.80
2023-04-03T05:27:54.113Z,30.05
2023-04-03T05:32:59.530Z,29.65
2023-04-03T05:38:24.842Z,29.31
2023-04-03T05:43:32.094Z,29.77
2023-04-03T05:48:37.667Z,29.65
2023-04-03T05:53:43.969Z,29.78
2023-04-03T05:58:50.657Z,29.21
2023-04-03T06:03:57.362Z,28.85
2023-04-03T06:09:04.465Z,29.71
2023-04-03T06:14:12.035Z,29.14
2023-04-03T06:19:18.372Z,29.40
2023-04-03T06:24:28.557Z,29.79
2023-04-03T06:29:34.363Z,29.84
2023-04-03T06:34:39.612Z,29.41
2023-04-03T06:39:45.358Z,29.78
2023-04-03T06:44:50.858Z,29.58
2023-04-03T06:49:56.048Z,28.52
2023-04-03T06:55:02.026Z,29.41
2023-04-03T07:00:09.547Z,29.41
2023-04-03T07:05:15.441Z,29.29
2023-04-03T07:10:21.170Z,29.35
2023-04-03T07:15:27.209Z,29.15
2023-04-03T07:20:32.342Z,29.33
2023-04-03T07:25:37.838Z,29.41
2023-04-03T07:30:48.314Z,29.10
2023-04-03T07:35:53.755Z,29.66
2023-04-03T07:40:59.154Z,28.43
2023-04-03T07:46:07.537Z,28.23
2023-04-03T07:51:13.133Z,28.73
2023-04-03T07:56:19.319Z,28.89
2023-04-03T08:01:24.618Z,28.42
2023-04-03T08:06:44.871Z,28.64
2023-04-03T08:11:51.589Z,28.53
2023-04-03T08:16:56.945Z,28.83
2023-04-03T08:22:03.087Z,28.97
2023-04-03T08:27:08.243Z,28.57
2023-04-03T08:32:13.766Z,28.44
2023-04-03T08:37:19.508Z,29.05
2023-04-03T08:42:27.133Z,29.07
2023-04-03T08:47:44.080Z,29.40
2023-04-03T08:52:56.469Z,29.41
2023-04-03T08:58:18.414Z,29.49
2023-04-03T09:03:26.130Z,28.84
2023-04-03T09:08:47.127Z,29.52
2023-04-03T09:14:03.361Z,29.73
2023-04-03T09:19:18.879Z,29.52
2023-04-03T09:24:26.788Z,29.49
2023-04-03T09:29:32.078Z,29.64
2023-04-03T09:34:42.629Z,29.14
2023-04-03T09:39:56.470Z,29.30
2023-04-03T09:45:08.012Z,29.77
2023-04-03T09:50:16.181Z,29.93
2023-04-03T09:55:29.208Z,29.36
2023-04-03T10:00:41.512Z,28.90
2023-04-03T10:05:47.038Z,28.58
2023-04-03T10:11:12.138Z,29.45
2023-04-03T10:16:26.801Z,29.76
2023-04-03T10:21:45.125Z,29.73
2023-04-03T10:27:04.571Z,29.70
2023-04-03T10:32:30.414Z,29.64
2023-04-03T10:37:50.509Z,29.70
2023-04-03T10:43:07.614Z,29.60
2023-04-03T10:48:37.048Z,29.39
2023-04-03T10:54:00.462Z,29.59
2023-04-03T10:59:14.212Z,29.41
2023-04-03T11:04:22.226Z,29.20
2023-04-03T11:09:31.803Z,29.59
2023-04-03T11:14:42.329Z,29.39
2023-04-03T11:20:08.944Z,29.62
2023-04-03T11:25:14.323Z,29.34
2023-04-03T11:30:23.221Z,29.62
2023-04-03T11:35:29.926Z,29.19
2023-04-03T11:40:39.494Z,29.64
2023-04-03T11:46:04.469Z,29.97
2023-04-03T11:51:18.575Z,29.78
2023-04-03T11:56:29.759Z,29.50
2023-04-03T12:01:51.742Z,30.00
2023-04-03T12:07:06.553Z,29.75
2023-04-03T12:12:44.049Z,30.08
2023-04-03T12:17:49.770Z,29.72
2023-04-03T12:23:26.482Z,30.01
2023-04-03T12:28:32.035Z,29.83
2023-04-03T12:33:51.892Z,29.67
2023-04-03T12:38:58.019Z,29.86
2023-04-03T12:44:20.862Z,29.97
2023-04-03T12:49:32.743Z,30.05
2023-04-03T12:54:55.068Z,29.95
2023-04-03T13:00:02.298Z,29.96
2023-04-03T13:05:16.822Z,30.10
2023-04-03T13:10:23.214Z,30.11
2023-04-03T13:15:42.736Z,30.19
2023-04-03T13:20:52.328Z,30.35
2023-04-03T13:26:00.666Z,30.47
2023-04-03T13:31:21.883Z,30.30
2023-04-03T13:36:36.726Z,30.36
2023-04-03T13:41:48.481Z,30.39
2023-04-03T13:46:58.170Z,30.55
2023-04-03T13:52:08.226Z,30.84
2023-04-03T13:57:19.105Z,30.69
2023-04-03T14:02:37.715Z,30.78
2023-04-03T14:07:45.707Z,30.78
2023-04-03T14:12:56.244Z,30.83
2023-04-03T14:18:04.983Z,30.82
2023-04-03T14:23:13.542Z,31.01
2023-04-03T14:28:24.796Z,30.85
2023-04-03T14:33:33.434Z,31.02
2023-04-03T14:38:38.799Z,31.02
2023-04-03T14:43:46.247Z,31.84
2023-04-03T14:48:51.459Z,31.39
2023-04-03T14:53:58.291Z,31.68
2023-04-03T14:59:04.729Z,31.69
2023-04-03T15:04:22.366Z,31.47
2023-04-03T15:09:31.273Z,31.84
2023-04-03T15:14:42.323Z,32.51
2023-04-03T15:19:53.424Z,32.78
2023-04-03T15:24:58.701Z,32.80
2023-04-03T15:30:04.245Z,32.58
2023-04-03T15:35:11.643Z,32.76
2023-04-03T15:40:17.270Z,33.05
2023-04-03T15:45:23.745Z,32.51
2023-04-03T15:50:29.498Z,32.86
2023-04-03T15:55:37.580Z,32.47
2023-04-03T16:00:43.670Z,32.90
2023-04-03T16:05:49.857Z,33.25
2023-04-03T16:10:55.491Z,33.35
2023-04-03T16:16:02.324Z,33.13
2023-04-03T16:21:10.467Z,33.52
2023-04-03T16:26:16.232Z,33.03
2023-04-03T16:31:21.930Z,32.57
2023-04-03T16:36:28.130Z,32.85
2023-04-03T16:41:33.415Z,32.68
2023-04-03T16:46:38.741Z,32.92
2023-04-03T16:51:43.909Z,32.58
2023-04-03T16:56:49.090Z,32.61
2023-04-03T17:01:54.314Z,32.46
2023-04-03T17:06:59.923Z,32.54
2023-04-03T17:12:05.519Z,33.16
2023-04-03T17:17:11.000Z,33.14
2023-04-03T17:22:18.222Z,32.90
2023-04-03T17:27:23.333Z,32.94
2023-04-03T17:32:28.557Z,34.54
2023-04-03T17:37:33.908Z,33.39
2023-04-03T17:42:39.031Z,33.46
2023-04-03T17:47:44.291Z,33.34
2023-04-03T17:52:49.522Z,33.75
2023-04-03T17:57:54.652Z,33.26
2023-04-03T18:03:00.488Z,33.39
2023-04-03T18:08:06.188Z,33.57
2023-04-03T18:13:12.017Z,34.06
2023-04-03T18:18:17.369Z,33.94
2023-04-03T18:23:22.638Z,34.04
2023-04-03T18:28:29.407Z,33.87
2023-04-03T18:33:34.873Z,34.69
2023-04-03T18:38:41.164Z,34.86
2023-04-03T18:43:46.474Z,35.00
2023-04-03T18:48:52.065Z,34.81
2023-04-03T18:53:57.220Z,34.60
2023-04-03T18:59:02.346Z,35.68
2023-04-03T19:04:07.848Z,35.21
2023-04-03T19:09:12.991Z,34.35
2023-04-03T19:14:18.099Z,34.75
2023-04-03T19:19:23.184Z,35.25
2023-04-03T19:24:28.363Z,35.10
2023-04-03T19:29:33.910Z,36.30
2023-04-03T19:34:39.150Z,36.10
2023-04-03T19:39:44.094Z,34.94
2023-04-03T19:44:50.765Z,35.65
2023-04-03T19:49:55.769Z,34.82
2023-04-03T19:55:00.893Z,35.48
2023-04-03T20:00:06.532Z,36.63
2023-04-03T20:05:15.518Z,36.51
2023-04-03T20:10:20.819Z,37.08
2023-04-03T20:15:27.498Z,38.83
2023-04-03T20:20:32.636Z,38.63
2023-04-03T20:25:54.151Z,39.10
2023-04-03T20:31:09.143Z,38.99
2023-04-03T20:36:14.627Z,38.70
2023-04-03T20:41:20.133Z,37.10
2023-04-03T20:46:42.236Z,37.45
2023-04-03T20:51:54.747Z,37.84
2023-04-03T20:57:00.470Z,37.47
2023-04-03T21:02:05.928Z,37.39
2023-04-03T21:07:48.113Z,36.69
2023-04-03T21:13:29.692Z,36.06
2023-04-03T21:18:53.808Z,37.27
2023-04-03T21:23:59.129Z,38.13
2023-04-03T21:29:04.643Z,39.74
2023-04-03T21:34:09.784Z,39.03
2023-04-03T21:39:14.901Z,38.22
2023-04-03T21:44:23.548Z,38.98
2023-04-03T21:49:28.651Z,39.23
2023-04-03T21:54:34.444Z,37.40
2023-04-03T21:59:40.647Z,39.07
2023-04-03T22:04:47.008Z,37.63
2023-04-03T22:09:52.604Z,37.99
2023-04-03T22:14:57.859Z,37.32
2023-04-03T22:20:03.186Z,36.79
2023-04-03T22:25:09.414Z,37.22
2023-04-03T22:30:15.076Z,37.48
2023-04-03T22:35:20.217Z,37.09
2023-04-03T22:40:24.872Z,38.72
2023-04-03T22:45:30.049Z,37.39
2023-04-03T22:50:38.383Z,38.15
2023-04-03T22:55:43.623Z,37.15
2023-04-03T23:00:48.920Z,37.71
2023-04-03T23:05:55.004Z,36.89
2023-04-03T23:11:01.141Z,37.57
2023-04-03T23:16:06.873Z,37.39
2023-04-03T23:21:12.247Z,37.72
2023-04-03T23:26:17.321Z,37.12
2023-04-03T23:31:22.776Z,36.58
2023-04-03T23:36:27.790Z,36.15
2023-04-03T23:41:32.851Z,35.89
2023-04-03T23:46:37.958Z,36.47
2023-04-03T23:51:42.956Z,36.26
2023-04-03T23:56:48.015Z,36.27
